createdAt,value
2018-01-13T00:01:08.284Z,19.83
2018-01-13T00:03:37.795Z,18.80
2018-01-13T00:06:07.566Z,18.73
2018-01-13T00:08:36.567Z,19.37
2018-01-13T00:11:05.507Z,20.10
2018-01-13T00:13:34.522Z,19.97
2018-01-13T00:16:03.442Z,18.20
2018-01-13T00:18:32.494Z,20.23
2018-01-13T00:21:02.318Z,20.33
2018-01-13T00:23:31.313Z,19.97
2018-01-13T00:26:00.298Z,18.50
2018-01-13T00:28:29.295Z,17.30
2018-01-13T00:30:58.279Z,19.70
2018-01-13T00:33:27.207Z,20.80
2018-01-13T00:35:56.164Z,18.80
2018-01-13T00:38:25.530Z,19.03
2018-01-13T00:40:54.493Z,17.90
2018-01-13T00:43:23.460Z,18.93
2018-01-13T00:45:53.196Z,18.83
2018-01-13T00:48:22.160Z,20.80
2018-01-13T00:50:51.507Z,18.63
2018-01-13T00:53:20.482Z,18.97
2018-01-13T00:55:49.543Z,18.70
2018-01-13T00:58:18.497Z,18.20
2018-01-13T01:00:47.890Z,21.17
2018-01-13T01:03:16.876Z,18.93
2018-01-13T01:05:45.849Z,17.70
2018-01-13T01:08:15.587Z,18.60
2018-01-13T01:10:44.634Z,19.30
2018-01-13T01:13:14.416Z,19.60
2018-01-13T01:15:43.671Z,21.07
2018-01-13T01:18:12.631Z,18.20
2018-01-13T01:20:42.346Z,21.43
2018-01-13T01:25:46.374Z,17.93
2018-01-13T01:28:15.687Z,19.50
2018-01-13T01:30:44.685Z,19.23
2018-01-13T01:33:13.630Z,19.67
2018-01-13T01:35:42.603Z,18.90
2018-01-13T01:38:11.586Z,17.90
2018-01-13T01:40:40.595Z,18.87
2018-01-13T01:43:09.539Z,19.60
2018-01-13T01:45:38.519Z,17.33
2018-01-13T01:48:07.464Z,17.63
2018-01-13T01:50:36.420Z,19.70
2018-01-13T01:53:05.399Z,18.70
2018-01-13T01:55:34.771Z,18.20
2018-01-13T01:58:04.517Z,19.37
2018-01-13T02:00:33.483Z,19.87
2018-01-13T02:03:02.419Z,19.33
2018-01-13T02:05:31.408Z,19.90
2018-01-13T02:08:00.389Z,18.80
2018-01-13T02:10:29.343Z,18.23
2018-01-13T02:12:59.142Z,18.60
2018-01-13T02:15:29.609Z,19.70
2018-01-13T02:17:58.585Z,19.03
2018-01-13T02:20:28.288Z,17.50
2018-01-13T02:22:58.037Z,19.87
2018-01-13T02:25:27.003Z,21.53
2018-01-13T02:27:56.357Z,20.33
2018-01-13T02:30:25.733Z,18.83
2018-01-13T02:32:54.686Z,18.90
2018-01-13T02:35:23.628Z,18.73
2018-01-13T02:37:52.615Z,17.90
2018-01-13T02:40:21.667Z,16.90
2018-01-13T02:42:50.694Z,19.80
2018-01-13T02:45:20.413Z,20.37
2018-01-13T02:47:49.563Z,19.17
2018-01-13T02:50:18.557Z,20.30
2018-01-13T02:52:47.491Z,20.03
2018-01-13T02:55:17.222Z,23.07
2018-01-13T02:57:46.588Z,24.17
2018-01-13T03:00:16.304Z,22.90
2018-01-13T03:02:45.266Z,22.67
2018-01-13T03:05:15.005Z,28.90
2018-01-13T03:07:43.961Z,20.00
2018-01-13T03:10:13.685Z,22.10
2018-01-13T03:12:43.473Z,29.40
2018-01-13T03:15:12.474Z,26.00
2018-01-13T03:17:41.793Z,22.70
2018-01-13T03:20:10.779Z,20.00
2018-01-13T03:22:40.496Z,18.40
2018-01-13T03:25:09.845Z,19.93
2018-01-13T03:27:39.595Z,18.00
2018-01-13T03:30:09.344Z,18.33
2018-01-13T03:32:38.711Z,19.37
2018-01-13T03:35:08.414Z,16.83
2018-01-13T03:37:37.502Z,19.23
2018-01-13T03:40:06.426Z,19.23
2018-01-13T03:42:36.568Z,17.53
2018-01-13T03:45:05.719Z,19.40
2018-01-13T03:47:35.109Z,18.53
2018-01-13T03:50:04.209Z,20.67
2018-01-13T03:52:33.582Z,18.43
2018-01-13T03:55:02.532Z,17.70
2018-01-13T03:57:31.563Z,19.73
2018-01-13T04:00:00.585Z,17.97
2018-01-13T04:02:30.308Z,17.80
2018-01-13T04:04:59.284Z,19.50
2018-01-13T04:07:29.003Z,19.70
2018-01-13T04:09:58.808Z,17.50
2018-01-13T04:12:28.550Z,18.43
2018-01-13T04:14:57.509Z,16.90
2018-01-13T04:17:26.865Z,17.10
2018-01-13T04:19:55.820Z,17.60
2018-01-13T04:22:24.787Z,17.33
2018-01-13T04:24:54.494Z,19.10
2018-01-13T04:27:24.249Z,16.97
2018-01-13T04:29:53.581Z,18.50
2018-01-13T04:32:22.950Z,18.30
2018-01-13T04:34:51.903Z,16.33
2018-01-13T04:37:21.786Z,16.93
2018-01-13T04:39:50.741Z,15.70
2018-01-13T04:42:20.532Z,17.20
2018-01-13T04:44:49.489Z,16.33
2018-01-13T04:47:18.467Z,15.67
2018-01-13T04:49:47.410Z,19.00
2018-01-13T04:52:16.776Z,17.50
2018-01-13T04:54:45.728Z,19.00
2018-01-13T04:57:15.507Z,18.43
2018-01-13T04:59:45.235Z,18.37
2018-01-13T05:02:14.249Z,17.40
2018-01-13T05:04:43.910Z,17.50
2018-01-13T05:07:12.903Z,17.90
2018-01-13T05:09:42.645Z,18.53
2018-01-13T05:12:11.604Z,17.20
2018-01-13T05:14:41.311Z,20.83
2018-01-13T05:17:11.021Z,16.80
2018-01-13T05:19:39.986Z,17.93
2018-01-13T05:22:09.008Z,18.23
2018-01-13T05:24:37.955Z,18.40
2018-01-13T05:27:06.904Z,18.77
2018-01-13T05:29:36.262Z,18.33
2018-01-13T05:32:05.245Z,16.80
2018-01-13T05:34:34.192Z,16.17
2018-01-13T05:37:03.154Z,16.57
2018-01-13T05:39:32.124Z,17.30
2018-01-13T05:42:01.500Z,16.47
2018-01-13T05:44:30.468Z,18.43
2018-01-13T05:46:59.428Z,15.77
2018-01-13T05:49:28.354Z,17.53
2018-01-13T05:51:57.350Z,18.93
2018-01-13T05:54:26.320Z,17.00
2018-01-13T05:56:55.688Z,20.33
2018-01-13T05:59:24.681Z,19.03
2018-01-13T06:01:53.626Z,16.43
2018-01-13T06:04:22.564Z,17.23
2018-01-13T06:06:51.537Z,16.70
2018-01-13T06:09:20.994Z,18.67
2018-01-13T06:11:50.725Z,16.30
2018-01-13T06:14:19.690Z,19.33
2018-01-13T06:16:48.683Z,16.33
2018-01-13T06:19:17.632Z,18.10
2018-01-13T06:21:46.589Z,16.53
2018-01-13T06:24:15.620Z,17.70
2018-01-13T06:26:44.585Z,14.53
2018-01-13T06:29:13.519Z,15.57
2018-01-13T06:31:42.882Z,16.20
2018-01-13T06:34:11.837Z,18.80
2018-01-13T06:36:41.581Z,16.77
2018-01-13T06:39:10.526Z,17.10
2018-01-13T06:41:39.495Z,17.80
2018-01-13T06:44:08.529Z,19.47
2018-01-13T06:46:38.335Z,17.40
2018-01-13T06:49:07.261Z,17.00
2018-01-13T06:51:36.627Z,16.50
2018-01-13T06:54:06.424Z,17.13
2018-01-13T06:56:35.495Z,16.70
2018-01-13T06:59:04.447Z,15.27
2018-01-13T07:01:34.190Z,16.00
2018-01-13T07:04:03.171Z,16.77
2018-01-13T07:06:32.549Z,15.40
2018-01-13T07:09:01.559Z,16.83
2018-01-13T07:11:30.718Z,15.77
2018-01-13T07:13:59.710Z,15.03
2018-01-13T07:16:28.666Z,17.30
2018-01-13T07:18:57.675Z,13.63
2018-01-13T07:21:26.665Z,16.83
2018-01-13T07:23:55.598Z,14.60
2018-01-13T07:26:24.979Z,16.43
2018-01-13T07:28:54.727Z,15.57
2018-01-13T07:31:23.763Z,17.27
2018-01-13T07:33:54.289Z,15.90
2018-01-13T07:36:23.219Z,15.73
2018-01-13T07:38:53.211Z,16.17
2018-01-13T07:41:24.462Z,16.43
2018-01-13T07:43:53.454Z,15.27
2018-01-13T07:46:22.372Z,14.77
2018-01-13T07:48:51.357Z,16.50
2018-01-13T07:51:20.361Z,16.30
2018-01-13T07:53:49.725Z,18.63
2018-01-13T07:56:19.457Z,18.53
2018-01-13T07:58:48.843Z,19.80
2018-01-13T08:01:17.792Z,18.80
2018-01-13T08:03:47.153Z,16.20
2018-01-13T08:06:16.161Z,18.53
2018-01-13T08:08:45.497Z,16.73
2018-01-13T08:11:14.475Z,16.17
2018-01-13T08:13:43.421Z,16.20
2018-01-13T08:16:13.229Z,16.33
2018-01-13T08:18:42.959Z,15.27
2018-01-13T08:21:12.682Z,17.13
2018-01-13T08:23:41.647Z,15.97
2018-01-13T08:26:10.632Z,15.00
2018-01-13T08:28:40.345Z,16.10
2018-01-13T08:31:09.711Z,14.97
2018-01-13T08:33:38.729Z,14.90
2018-01-13T08:36:08.482Z,15.37
2018-01-13T08:38:37.435Z,16.83
2018-01-13T08:41:06.790Z,15.43
2018-01-13T08:43:35.732Z,16.37
2018-01-13T08:46:05.493Z,15.30
2018-01-13T08:48:34.473Z,16.93
2018-01-13T08:51:04.579Z,17.07
2018-01-13T08:53:33.603Z,16.20
2018-01-13T08:56:03.319Z,16.23
2018-01-13T08:58:32.341Z,16.83
2018-01-13T09:01:02.775Z,16.90
2018-01-13T09:03:32.520Z,16.87
2018-01-13T09:06:01.547Z,17.60
2018-01-13T09:08:30.494Z,15.53
2018-01-13T09:10:59.838Z,17.60
2018-01-13T09:13:29.572Z,17.27
2018-01-13T09:15:59.277Z,16.67
2018-01-13T09:18:29.000Z,16.90
2018-01-13T09:20:58.747Z,16.27
2018-01-13T09:23:27.692Z,15.13
2018-01-13T09:25:57.567Z,17.07
2018-01-13T09:28:26.562Z,18.10
2018-01-13T09:30:55.982Z,17.03
2018-01-13T09:33:24.958Z,17.70
2018-01-13T09:35:53.952Z,17.87
2018-01-13T09:38:22.940Z,17.20
2018-01-13T09:40:52.705Z,17.37
2018-01-13T09:43:21.693Z,17.30
2018-01-13T09:45:51.441Z,17.90
2018-01-13T09:48:20.832Z,19.37
2018-01-13T09:50:49.784Z,18.87
2018-01-13T09:53:19.526Z,17.37
2018-01-13T09:55:48.476Z,17.90
2018-01-13T09:58:17.447Z,18.50
2018-01-13T10:00:46.436Z,17.07
2018-01-13T10:03:15.384Z,18.33
2018-01-13T10:05:44.360Z,32.90
2018-01-13T10:08:14.099Z,20.70
2018-01-13T10:10:43.471Z,18.20
2018-01-13T10:13:13.239Z,19.20
2018-01-13T10:15:42.186Z,17.43
2018-01-13T10:18:11.181Z,18.10
2018-01-13T10:20:40.256Z,18.10
2018-01-13T10:23:09.605Z,18.73
2018-01-13T10:25:38.563Z,16.43
2018-01-13T10:28:07.539Z,19.33
2018-01-13T10:30:37.325Z,18.13
2018-01-13T10:33:06.734Z,18.30
2018-01-13T10:35:36.535Z,17.97
2018-01-13T10:38:05.544Z,17.17
2018-01-13T10:40:34.556Z,18.37
2018-01-13T10:43:04.296Z,19.90
2018-01-13T10:45:33.282Z,19.60
2018-01-13T10:48:02.286Z,18.07
2018-01-13T10:50:32.011Z,18.80
2018-01-13T10:53:02.649Z,18.07
2018-01-13T10:55:32.045Z,19.50
2018-01-13T10:58:01.799Z,19.73
2018-01-13T11:00:31.492Z,19.93
2018-01-13T11:03:00.446Z,19.10
2018-01-13T11:05:30.301Z,18.87
2018-01-13T11:07:59.656Z,18.70
2018-01-13T11:10:28.645Z,19.97
2018-01-13T11:12:58.550Z,19.20
2018-01-13T11:15:28.217Z,19.40
2018-01-13T11:17:57.819Z,19.37
2018-01-13T11:20:26.779Z,18.70
2018-01-13T11:22:56.583Z,20.57
2018-01-13T11:25:26.344Z,20.60
2018-01-13T11:27:56.164Z,21.23
2018-01-13T11:30:25.568Z,21.03
2018-01-13T11:32:55.473Z,19.87
2018-01-13T11:35:25.090Z,21.20
2018-01-13T11:37:54.423Z,19.47
2018-01-13T11:40:23.460Z,18.70
2018-01-13T11:42:53.264Z,21.90
2018-01-13T11:45:22.238Z,19.73
2018-01-13T11:47:52.664Z,21.10
2018-01-13T11:50:21.750Z,22.67
2018-01-13T11:52:50.716Z,20.87
2018-01-13T11:55:19.773Z,20.13
2018-01-13T11:57:50.671Z,22.40
2018-01-13T12:00:19.805Z,20.20
2018-01-13T12:02:49.600Z,17.77
2018-01-13T12:05:19.033Z,21.30
2018-01-13T12:07:48.474Z,19.57
2018-01-13T12:10:18.857Z,20.70
2018-01-13T12:12:47.866Z,21.03
2018-01-13T12:15:17.644Z,21.20
2018-01-13T12:17:46.706Z,18.73
2018-01-13T12:20:15.782Z,20.57
2018-01-13T12:22:44.819Z,21.40
2018-01-13T12:25:14.864Z,21.40
2018-01-13T12:27:43.977Z,21.00
2018-01-13T12:30:13.717Z,20.13
2018-01-13T12:32:43.769Z,21.73
2018-01-13T12:35:13.179Z,21.27
2018-01-13T12:37:42.900Z,20.07
2018-01-13T12:40:12.608Z,20.03
2018-01-13T12:42:42.357Z,20.30
2018-01-13T12:45:11.377Z,20.67
2018-01-13T12:47:40.757Z,19.87
2018-01-13T12:50:09.698Z,20.27
2018-01-13T12:52:39.435Z,20.50
2018-01-13T12:55:08.870Z,20.17
2018-01-13T12:57:38.261Z,19.57
2018-01-13T13:00:07.205Z,18.83
2018-01-13T13:02:36.941Z,21.20
2018-01-13T13:05:05.887Z,19.73
2018-01-13T13:07:35.299Z,21.70
2018-01-13T13:10:04.224Z,18.23
2018-01-13T13:12:33.601Z,21.23
2018-01-13T13:15:02.974Z,20.63
2018-01-13T13:17:31.948Z,19.67
2018-01-13T13:20:00.912Z,20.40
2018-01-13T13:22:30.311Z,20.93
2018-01-13T13:24:59.672Z,20.23
2018-01-13T13:27:29.416Z,22.23
2018-01-13T13:29:59.156Z,21.67
2018-01-13T13:32:29.026Z,21.10
2018-01-13T13:35:03.507Z,22.33
2018-01-13T13:37:32.471Z,25.30
2018-01-13T13:40:01.468Z,23.07
2018-01-13T13:42:30.396Z,21.37
2018-01-13T13:44:59.835Z,18.97
2018-01-13T13:47:29.575Z,20.77
2018-01-13T13:49:58.570Z,18.93
2018-01-13T13:52:27.886Z,19.20
2018-01-13T13:54:57.639Z,19.37
2018-01-13T13:57:26.685Z,17.53
2018-01-13T13:59:55.725Z,16.87
2018-01-13T14:02:24.679Z,19.90
2018-01-13T14:04:53.736Z,18.60
2018-01-13T14:07:22.722Z,16.43
2018-01-13T14:09:51.696Z,16.40
2018-01-13T14:12:21.449Z,16.83
2018-01-13T14:14:50.436Z,17.63
2018-01-13T14:17:19.399Z,18.13
2018-01-13T14:19:49.156Z,17.10
2018-01-13T14:22:18.579Z,19.47
2018-01-13T14:24:47.869Z,20.47
2018-01-13T14:27:16.860Z,20.30
2018-01-13T14:29:45.845Z,20.67
2018-01-13T14:32:14.841Z,23.10
2018-01-13T14:34:43.871Z,20.07
2018-01-13T14:37:13.626Z,19.20
2018-01-13T14:39:43.385Z,21.20
2018-01-13T14:42:13.127Z,21.67
2018-01-13T14:44:42.092Z,18.63
2018-01-13T14:47:11.460Z,22.70
2018-01-13T14:49:41.185Z,16.80
2018-01-13T14:52:10.157Z,16.00
2018-01-13T14:54:39.907Z,18.17
2018-01-13T14:57:09.639Z,16.70
2018-01-13T14:59:38.626Z,17.40
2018-01-13T15:02:07.626Z,17.17
2018-01-13T15:04:37.412Z,18.73
2018-01-13T15:07:07.165Z,19.50
2018-01-13T15:09:36.609Z,20.20
2018-01-13T15:12:05.582Z,19.30
2018-01-13T15:14:35.328Z,18.97
2018-01-13T15:17:05.070Z,19.03
2018-01-13T15:19:34.829Z,20.80
2018-01-13T15:22:04.558Z,20.90
2018-01-13T15:24:34.310Z,22.10
2018-01-13T15:27:03.253Z,21.23
2018-01-13T15:29:33.053Z,20.07
2018-01-13T15:32:02.436Z,23.00
2018-01-13T15:34:32.183Z,23.30
2018-01-13T15:37:01.532Z,20.63
2018-01-13T15:39:30.705Z,23.40
2018-01-13T15:42:00.433Z,20.67
2018-01-13T15:44:29.397Z,22.30
2018-01-13T15:46:59.182Z,20.53
2018-01-13T15:49:29.688Z,20.53
2018-01-13T15:51:58.632Z,20.87
2018-01-13T15:54:28.380Z,23.50
2018-01-13T15:56:57.446Z,20.50
2018-01-13T15:59:26.448Z,19.70
2018-01-13T16:01:55.399Z,23.30
2018-01-13T16:04:24.760Z,20.20
2018-01-13T16:06:54.469Z,20.20
2018-01-13T16:09:23.464Z,20.23
2018-01-13T16:11:52.881Z,21.03
2018-01-13T16:14:22.655Z,19.43
2018-01-13T16:16:51.776Z,18.27
2018-01-13T16:19:21.491Z,19.47
2018-01-13T16:21:50.498Z,19.90
2018-01-13T16:24:19.876Z,22.73
2018-01-13T16:26:49.621Z,20.80
2018-01-13T16:29:19.040Z,21.57
2018-01-13T16:31:48.797Z,21.03
2018-01-13T16:34:17.745Z,21.83
2018-01-13T16:36:46.691Z,21.00
2018-01-13T16:39:15.734Z,20.97
2018-01-13T16:41:45.494Z,20.33
2018-01-13T16:44:15.229Z,22.80
2018-01-13T16:46:44.225Z,22.10
2018-01-13T16:49:13.638Z,20.50
2018-01-13T16:51:43.366Z,19.90
2018-01-13T16:54:12.741Z,22.10
2018-01-13T16:56:42.504Z,21.63
2018-01-13T16:59:12.243Z,20.70
2018-01-13T17:01:42.074Z,23.43
2018-01-13T17:04:11.820Z,22.80
2018-01-13T17:06:40.772Z,22.63
2018-01-13T17:09:10.495Z,19.17
2018-01-13T17:11:39.482Z,21.27
2018-01-13T17:14:08.869Z,20.23
2018-01-13T17:16:37.839Z,22.50
2018-01-13T17:19:06.806Z,22.43
2018-01-13T17:21:36.514Z,21.90
2018-01-13T17:24:05.526Z,22.30
2018-01-13T17:26:34.474Z,24.17
2018-01-13T17:29:03.404Z,20.83
2018-01-13T17:31:32.781Z,20.60
2018-01-13T17:34:01.747Z,22.80
2018-01-13T17:36:31.468Z,20.23
2018-01-13T17:39:00.486Z,22.10
2018-01-13T17:41:29.535Z,22.10
2018-01-13T17:43:59.337Z,21.00
2018-01-13T17:46:28.716Z,24.03
2018-01-13T17:48:57.764Z,22.13
2018-01-13T17:51:26.703Z,21.40
2018-01-13T17:53:55.699Z,22.03
2018-01-13T17:56:25.432Z,25.47
2018-01-13T17:58:55.172Z,22.00
2018-01-13T18:01:24.259Z,22.07
2018-01-13T18:03:53.219Z,23.80
2018-01-13T18:06:22.205Z,21.87
2018-01-13T18:08:51.137Z,23.60
2018-01-13T18:11:20.527Z,21.73
2018-01-13T18:13:50.270Z,23.57
2018-01-13T18:16:19.238Z,22.60
2018-01-13T18:18:48.598Z,25.73
2018-01-13T18:21:17.591Z,22.57
2018-01-13T18:23:46.674Z,28.97
2018-01-13T18:26:15.662Z,27.07
2018-01-13T18:28:45.410Z,26.70
2018-01-13T18:31:14.398Z,27.20
2018-01-13T18:33:43.333Z,26.60
2018-01-13T18:36:12.302Z,25.90
2018-01-13T18:38:41.307Z,28.13
2018-01-13T18:41:10.684Z,26.77
2018-01-13T18:43:40.440Z,26.07
2018-01-13T18:46:09.394Z,27.73
2018-01-13T18:48:38.757Z,24.87
2018-01-13T18:51:07.742Z,26.00
2018-01-13T18:53:36.729Z,26.40
2018-01-13T18:56:06.521Z,24.77
2018-01-13T18:58:35.892Z,26.10
2018-01-13T19:01:04.898Z,26.67
2018-01-13T19:03:33.967Z,25.30
2018-01-13T19:06:04.424Z,23.97
2018-01-13T19:08:33.827Z,24.40
2018-01-13T19:11:03.592Z,28.00
2018-01-13T19:13:32.616Z,26.83
2018-01-13T19:16:03.257Z,27.47
2018-01-13T19:18:32.674Z,27.93
2018-01-13T19:21:01.689Z,28.63
2018-01-13T19:23:30.690Z,26.40
2018-01-13T19:25:59.678Z,27.73
2018-01-13T19:28:29.920Z,26.00
2018-01-13T19:30:58.904Z,26.87
2018-01-13T19:33:27.899Z,25.37
2018-01-13T19:35:56.911Z,25.67
2018-01-13T19:38:27.373Z,22.37
2018-01-13T19:40:57.922Z,21.27
2018-01-13T19:43:27.660Z,22.00
2018-01-13T19:45:57.064Z,23.60
2018-01-13T19:48:26.501Z,19.43
2018-01-13T19:50:55.538Z,21.27
2018-01-13T19:53:24.557Z,20.30
2018-01-13T19:55:53.542Z,18.13
2018-01-13T19:58:23.279Z,19.93
2018-01-13T20:00:52.722Z,20.00
2018-01-13T20:03:21.882Z,19.03
2018-01-13T20:05:51.680Z,17.27
2018-01-13T20:08:20.676Z,17.93
2018-01-13T20:10:50.488Z,18.53
2018-01-13T20:13:19.508Z,15.70
2018-01-13T20:15:48.531Z,18.03
2018-01-13T20:18:18.441Z,18.00
2018-01-13T20:20:47.468Z,17.17
2018-01-13T20:23:16.450Z,18.50
2018-01-13T20:25:46.218Z,16.73
2018-01-13T20:28:18.450Z,17.03
2018-01-13T20:30:47.852Z,17.37
2018-01-13T20:33:17.929Z,17.33
2018-01-13T20:35:46.947Z,16.70
2018-01-13T20:38:17.448Z,17.13
2018-01-13T20:40:46.467Z,15.50
2018-01-13T20:43:15.514Z,16.07
2018-01-13T20:45:46.094Z,17.20
2018-01-13T20:48:15.518Z,15.13
2018-01-13T20:50:44.888Z,15.80
2018-01-13T20:53:14.738Z,18.70
2018-01-13T20:55:43.726Z,16.97
2018-01-13T20:58:13.466Z,14.90
2018-01-13T21:00:42.965Z,15.57
2018-01-13T21:03:11.968Z,17.23
2018-01-13T21:05:40.981Z,17.30
2018-01-13T21:08:10.763Z,15.37
2018-01-13T21:10:39.795Z,16.57
2018-01-13T21:13:09.529Z,15.47
2018-01-13T21:15:39.303Z,15.77
2018-01-13T21:18:08.329Z,15.67
2018-01-13T21:20:37.429Z,15.50
2018-01-13T21:23:06.431Z,15.93
2018-01-13T21:25:35.891Z,15.10
2018-01-13T21:28:05.650Z,15.60
2018-01-13T21:30:35.401Z,14.30
2018-01-13T21:33:04.645Z,15.57
2018-01-13T21:35:34.478Z,16.07
2018-01-13T21:38:03.488Z,15.00
2018-01-13T21:40:32.479Z,13.83
2018-01-13T21:43:02.819Z,15.70
2018-01-13T21:45:32.191Z,14.63
2018-01-13T21:48:01.649Z,13.40
2018-01-13T21:50:31.381Z,14.07
2018-01-13T21:53:00.792Z,13.77
2018-01-13T21:55:30.517Z,14.77
2018-01-13T21:57:59.558Z,13.90
2018-01-13T22:00:29.303Z,13.97
2018-01-13T22:02:59.119Z,14.43
2018-01-13T22:05:29.654Z,14.20
2018-01-13T22:08:00.720Z,16.07
2018-01-13T22:10:30.470Z,13.50
2018-01-13T22:12:59.904Z,14.17
2018-01-13T22:15:29.709Z,13.97
2018-01-13T22:17:59.642Z,13.80
2018-01-13T22:20:29.362Z,13.70
2018-01-13T22:22:58.339Z,12.43
2018-01-13T22:25:27.349Z,13.90
2018-01-13T22:27:56.734Z,13.80
2018-01-13T22:30:26.465Z,12.90
2018-01-13T22:32:55.468Z,14.17
2018-01-13T22:35:24.466Z,12.13
2018-01-13T22:37:53.850Z,13.83
2018-01-13T22:40:22.823Z,13.00
2018-01-13T22:42:52.440Z,14.13
2018-01-13T22:45:21.414Z,13.70
2018-01-13T22:47:51.115Z,13.07
2018-01-13T22:50:20.860Z,13.40
2018-01-13T22:52:49.852Z,12.73
2018-01-13T22:55:18.844Z,12.60
2018-01-13T22:57:48.693Z,12.53
2018-01-13T23:00:18.433Z,13.37
2018-01-13T23:02:48.146Z,14.03
2018-01-13T23:05:17.896Z,13.30
2018-01-13T23:07:47.665Z,13.13
2018-01-13T23:10:17.423Z,12.53
2018-01-13T23:12:46.369Z,13.10
2018-01-13T23:15:15.724Z,12.70
2018-01-13T23:17:45.501Z,13.43
2018-01-13T23:20:14.835Z,14.50
2018-01-13T23:22:43.866Z,12.70
2018-01-13T23:25:13.594Z,14.30
2018-01-13T23:27:42.562Z,14.47
2018-01-13T23:30:12.298Z,15.60
2018-01-13T23:32:41.662Z,12.10
2018-01-13T23:35:11.426Z,12.80
2018-01-13T23:37:40.795Z,11.50
2018-01-13T23:40:10.537Z,12.80
2018-01-13T23:42:39.601Z,11.97
2018-01-13T23:45:08.529Z,12.30
2018-01-13T23:47:37.503Z,12.63
2018-01-13T23:50:06.439Z,11.70
2018-01-13T23:52:35.408Z,12.27
2018-01-13T23:55:04.459Z,11.57
